Time;durP1;ratioP1;P1;durP2;ratioP2;P2;SDS_P1;SDS_P2;PMS_P1;PMS_P2;Temp;Humidity;BMP_temperature;BMP_pressure;BME280_temperature;BME280_humidity;BME280_pressure;Samples;Min_cycle;Max_cycle;Signal;HPM_P1;HPM_P2
2023/05/16 00:01:04;;;;;;;1.13;1.03;;;;;;;12.02;99.68;95052.66;4327929;33;20181;-59
2023/05/16 00:03:29;;;;;;;0.73;0.73;;;;;;;12.00;100.00;95047.66;4349641;32;20227;-59
2023/05/16 00:05:56;;;;;;;0.60;0.60;;;;;;;11.98;100.00;95047.16;4349768;32;20185;-59
2023/05/16 00:08:22;;;;;;;1.23;1.23;;;;;;;11.88;100.00;95047.44;4358069;32;20307;-59
2023/05/16 00:10:47;;;;;;;0.40;0.40;;;;;;;11.88;100.00;95041.34;4359239;32;20212;-59
2023/05/16 00:13:13;;;;;;;0.93;0.93;;;;;;;11.92;100.00;95040.41;4339427;32;20299;-59
2023/05/16 00:15:38;;;;;;;2.53;1.73;;;;;;;11.77;100.00;95040.06;4360572;32;20184;-58
2023/05/16 00:18:04;;;;;;;0.73;0.73;;;;;;;11.80;100.00;95036.78;4347371;32;20196;-59
2023/05/16 00:20:30;;;;;;;1.07;1.07;;;;;;;11.80;100.00;95036.78;4360042;32;20299;-59
2023/05/16 00:22:59;;;;;;;0.80;0.80;;;;;;;11.93;100.00;95030.56;4355030;32;20198;-59
2023/05/16 00:25:25;;;;;;;2.43;1.23;;;;;;;11.90;100.00;95028.53;4336738;32;20216;-59
2023/05/16 00:27:50;;;;;;;1.40;1.30;;;;;;;11.88;100.00;95034.16;4334759;32;20265;-59
2023/05/16 00:30:16;;;;;;;1.03;1.03;;;;;;;11.87;100.00;95023.81;4345351;32;20169;-59
2023/05/16 00:32:42;;;;;;;0.63;0.63;;;;;;;11.73;100.00;95023.13;4359998;32;20220;-59
2023/05/16 00:35:09;;;;;;;1.00;1.00;;;;;;;11.71;100.00;95026.88;4345629;32;20184;-59
2023/05/16 00:37:35;;;;;;;0.87;0.87;;;;;;;11.76;100.00;95030.50;4345490;32;20253;-61
2023/05/16 00:40:00;;;;;;;1.13;1.13;;;;;;;11.71;100.00;95031.41;4346199;32;20177;-59
2023/05/16 00:42:26;;;;;;;0.67;0.67;;;;;;;11.57;100.00;95031.50;4359757;32;20196;-59
2023/05/16 00:44:51;;;;;;;0.73;0.73;;;;;;;11.58;100.00;95027.75;4346959;32;20185;-59
2023/05/16 00:47:16;;;;;;;0.83;0.83;;;;;;;11.58;100.00;95019.78;4356108;32;20180;-59
2023/05/16 00:49:42;;;;;;;1.03;1.03;;;;;;;11.51;100.00;95014.13;4354779;32;20224;-59
2023/05/16 00:52:07;;;;;;;1.00;1.00;;;;;;;11.75;100.00;95023.59;4355965;32;20189;-59
2023/05/16 00:54:32;;;;;;;0.90;0.90;;;;;;;11.62;100.00;95028.72;4343783;32;20250;-59
2023/05/16 00:56:58;;;;;;;0.67;0.67;;;;;;;11.74;100.00;95025.47;4340807;32;20265;-59
2023/05/16 00:59:24;;;;;;;0.60;0.60;;;;;;;11.75;100.00;95031.56;4359976;32;20199;-59
2023/05/16 01:01:50;;;;;;;0.93;0.93;;;;;;;11.77;100.00;95029.44;4346719;32;20299;-59
2023/05/16 01:04:16;;;;;;;1.03;1.03;;;;;;;11.78;100.00;95023.03;4357013;32;20198;-59
2023/05/16 01:06:42;;;;;;;2.40;1.00;;;;;;;11.93;100.00;95027.91;4353168;32;20246;-59
2023/05/16 01:09:08;;;;;;;0.70;0.70;;;;;;;11.93;100.00;95025.25;4345784;32;20176;-63
2023/05/16 01:11:55;;;;;;;0.70;0.70;;;;;;;11.89;100.00;95032.28;4346482;32;20233;-59
2023/05/16 01:14:33;;;;;;;0.77;0.77;;;;;;;11.85;100.00;95031.31;4352550;32;20228;-59
2023/05/16 01:17:12;;;;;;;1.30;1.30;;;;;;;11.82;100.00;95021.31;4343898;32;20230;-62
2023/05/16 01:19:59;;;;;;;1.00;0.77;;;;;;;11.83;100.00;95031.66;4357835;32;20217;-59
2023/05/16 01:22:56;;;;;;;0.80;0.80;;;;;;;11.82;100.00;95016.00;4338451;32;20185;-59
2023/05/16 01:25:31;;;;;;;1.33;1.33;;;;;;;11.75;100.00;95010.31;4344805;32;20177;-59
2023/05/16 01:27:58;;;;;;;4.53;1.17;;;;;;;11.67;100.00;95011.84;4363740;32;20181;-59
2023/05/16 01:30:24;;;;;;;1.00;1.00;;;;;;;11.63;100.00;95017.00;4349719;32;20240;-59
2023/05/16 01:32:50;;;;;;;1.07;1.07;;;;;;;11.64;100.00;95010.56;4363783;32;20309;-59
2023/05/16 01:35:17;;;;;;;0.90;0.90;;;;;;;11.54;100.00;95010.88;4344617;32;20185;-59
2023/05/16 01:37:45;;;;;;;1.27;1.27;;;;;;;11.68;100.00;95016.84;4346558;32;20294;-59
2023/05/16 01:40:52;;;;;;;2.50;1.20;;;;;;;11.66;100.00;95011.06;4347325;32;20177;-59
2023/05/16 01:43:26;;;;;;;0.80;0.80;;;;;;;11.43;100.00;95003.50;4359567;32;20177;-59
2023/05/16 01:46:03;;;;;;;1.23;1.23;;;;;;;11.55;100.00;95004.47;4347198;32;20236;-59
2023/05/16 01:48:34;;;;;;;0.87;0.87;;;;;;;11.59;100.00;94996.66;4348751;32;20185;-59
2023/05/16 01:51:02;;;;;;;0.70;0.70;;;;;;;11.55;100.00;95001.81;4359526;32;20260;-60
2023/05/16 01:53:35;;;;;;;1.10;1.10;;;;;;;11.60;100.00;95000.91;4348904;32;20287;-59
2023/05/16 01:56:02;;;;;;;1.40;1.40;;;;;;;11.53;100.00;94992.56;4358989;32;20264;-59
2023/05/16 01:58:32;;;;;;;1.00;1.00;;;;;;;11.54;100.00;95000.25;4360612;32;20232;-59
2023/05/16 02:01:02;;;;;;;0.90;0.90;;;;;;;11.53;100.00;95003.97;4348971;32;20181;-59
2023/05/16 02:03:29;;;;;;;1.23;1.23;;;;;;;11.48;100.00;94996.16;4355770;32;20250;-59
2023/05/16 02:05:55;;;;;;;0.87;0.87;;;;;;;11.56;100.00;95000.72;4359590;32;20199;-59
2023/05/16 02:08:20;;;;;;;0.57;0.57;;;;;;;11.51;100.00;95000.06;4363418;32;20181;-59
2023/05/16 02:10:46;;;;;;;0.77;0.77;;;;;;;11.55;100.00;94996.50;4364169;32;20178;-59
2023/05/16 02:13:11;;;;;;;1.43;1.43;;;;;;;11.55;100.00;95001.81;4350983;32;20173;-59
2023/05/16 02:15:36;;;;;;;0.90;0.90;;;;;;;11.45;100.00;95001.28;4344406;32;20184;-59
2023/05/16 02:18:01;;;;;;;1.50;1.40;;;;;;;11.63;100.00;95002.94;4343223;32;20235;-59
2023/05/16 02:20:27;;;;;;;1.77;1.67;;;;;;;11.67;100.00;95009.19;4347543;32;20181;-59
2023/05/16 02:22:52;;;;;;;1.67;1.57;;;;;;;11.58;100.00;95011.81;4350745;32;20193;-59
2023/05/16 02:25:18;;;;;;;1.50;1.40;;;;;;;11.52;100.00;95007.72;4349842;32;20193;-59
2023/05/16 02:27:43;;;;;;;1.33;1.33;;;;;;;11.45;100.00;95002.06;4356554;32;20207;-59
2023/05/16 02:30:12;;;;;;;1.07;1.07;;;;;;;11.44;100.00;95008.47;4359960;32;20193;-59
2023/05/16 02:32:38;;;;;;;2.17;0.97;;;;;;;11.49;100.00;95008.34;4357151;32;20181;-59
2023/05/16 02:35:04;;;;;;;1.17;1.17;;;;;;;11.56;100.00;95013.22;4345637;32;20193;-59
2023/05/16 02:37:29;;;;;;;1.30;1.30;;;;;;;11.57;100.00;95010.25;4350114;32;20212;-59
2023/05/16 02:39:55;;;;;;;0.97;0.97;;;;;;;11.41;100.00;95010.97;4343572;32;20223;-57
2023/05/16 02:42:20;;;;;;;1.37;1.27;;;;;;;11.47;100.00;95017.69;4354634;32;20192;-59
2023/05/16 02:44:45;;;;;;;1.47;1.37;;;;;;;11.48;100.00;95009.44;4362624;32;20197;-59
2023/05/16 02:47:10;;;;;;;2.60;1.47;;;;;;;11.61;100.00;95000.59;4339955;32;20177;-59
2023/05/16 02:49:36;;;;;;;1.47;1.47;;;;;;;11.59;100.00;95008.09;4361739;32;20178;-59
2023/05/16 02:52:01;;;;;;;1.33;1.33;;;;;;;11.30;100.00;95010.44;4346089;32;20230;-59
2023/05/16 02:54:27;;;;;;;1.70;1.60;;;;;;;11.39;100.00;95003.31;4350489;32;20256;-59
2023/05/16 02:56:52;;;;;;;1.83;1.83;;;;;;;11.49;100.00;94992.41;4347633;32;20200;-59
2023/05/16 02:59:18;;;;;;;1.80;1.70;;;;;;;11.70;100.00;94997.94;4349669;32;20230;-59
2023/05/16 03:01:43;;;;;;;1.70;1.40;;;;;;;11.59;100.00;95002.75;4362804;32;20185;-59
2023/05/16 03:04:09;;;;;;;1.27;1.27;;;;;;;11.52;100.00;94999.75;4361160;32;20180;-59
2023/05/16 03:06:34;;;;;;;2.27;2.17;;;;;;;11.40;100.00;95002.22;4339543;32;20208;-59
2023/05/16 03:08:59;;;;;;;1.57;1.53;;;;;;;11.57;100.00;95002.28;4345208;32;20181;-60
2023/05/16 03:11:27;;;;;;;1.57;1.57;;;;;;;11.56;100.00;95003.38;4364475;32;20195;-59
2023/05/16 03:13:53;;;;;;;1.90;1.50;;;;;;;11.59;100.00;95004.62;4359895;32;20211;-59
2023/05/16 03:16:18;;;;;;;2.73;1.83;;;;;;;11.47;100.00;94999.88;4356494;32;21640;-59
2023/05/16 03:18:43;;;;;;;1.70;1.23;;;;;;;11.43;100.00;95001.59;4341723;32;20189;-59
2023/05/16 03:21:09;;;;;;;2.17;0.90;;;;;;;11.46;100.00;95003.63;4341453;32;20203;-59
2023/05/16 03:23:34;;;;;;;1.50;1.43;;;;;;;11.45;100.00;95006.59;4345605;32;20234;-59
2023/05/16 03:25:59;;;;;;;1.40;1.40;;;;;;;11.44;100.00;95005.03;4361951;32;20200;-60
2023/05/16 03:28:25;;;;;;;1.07;1.07;;;;;;;11.41;100.00;95001.13;4363060;32;20181;-59
2023/05/16 03:30:50;;;;;;;2.47;1.90;;;;;;;11.39;100.00;95003.31;4340389;32;20196;-59
2023/05/16 03:33:16;;;;;;;1.50;1.50;;;;;;;11.34;100.00;95000.78;4341452;32;20248;-59
2023/05/16 03:35:42;;;;;;;1.40;1.40;;;;;;;11.32;100.00;95002.94;4362751;32;20223;-59
2023/05/16 03:38:08;;;;;;;2.10;1.87;;;;;;;11.37;100.00;94997.50;4348156;32;20189;-60
2023/05/16 03:40:34;;;;;;;2.07;1.97;;;;;;;11.40;100.00;94999.56;4343191;32;20211;-59
2023/05/16 03:43:04;;;;;;;2.20;2.10;;;;;;;11.42;100.00;94996.59;4347062;32;20256;-59
2023/05/16 03:45:30;;;;;;;1.57;1.57;;;;;;;11.39;100.00;94992.69;4347552;32;20201;-60
2023/05/16 03:47:56;;;;;;;1.33;1.23;;;;;;;11.50;100.00;94998.50;4350134;32;20219;-59
2023/05/16 03:50:21;;;;;;;6.60;2.37;;;;;;;11.33;100.00;94989.38;4357985;32;20189;-59
2023/05/16 03:52:46;;;;;;;1.43;1.43;;;;;;;11.36;100.00;94990.62;4361253;32;20276;-59
2023/05/16 03:55:13;;;;;;;2.10;2.00;;;;;;;11.44;100.00;94994.41;4344254;32;20250;-60
2023/05/16 03:57:41;;;;;;;2.63;2.03;;;;;;;11.41;100.00;94993.16;4347242;32;20189;-59
2023/05/16 04:00:07;;;;;;;2.93;2.73;;;;;;;11.52;100.00;94997.09;4343578;32;20219;-59
2023/05/16 04:02:33;;;;;;;2.60;2.00;;;;;;;11.48;100.00;94995.34;4340898;32;20270;-59
2023/05/16 04:04:58;;;;;;;1.23;1.23;;;;;;;11.48;99.77;94993.50;4339842;32;20201;-59
2023/05/16 04:07:23;;;;;;;2.63;2.43;;;;;;;11.46;99.79;94998.31;4359764;32;20227;-58
2023/05/16 04:09:50;;;;;;;1.97;1.87;;;;;;;11.37;100.00;94994.84;4359725;32;20252;-59
2023/05/16 04:12:15;;;;;;;1.50;1.50;;;;;;;11.28;100.00;94997.47;4357290;32;20227;-59
2023/05/16 04:14:41;;;;;;;2.03;1.90;;;;;;;11.30;100.00;95005.12;4339877;32;20181;-59
2023/05/16 04:17:06;;;;;;;1.87;1.77;;;;;;;11.24;100.00;95004.47;4359765;32;20203;-59
2023/05/16 04:19:31;;;;;;;1.30;1.30;;;;;;;11.28;100.00;95002.00;4343689;32;20201;-60
2023/05/16 04:21:57;;;;;;;2.00;1.87;;;;;;;11.27;100.00;95005.72;4363037;32;20185;-59
2023/05/16 04:24:25;;;;;;;1.80;1.70;;;;;;;11.42;100.00;95007.22;4356018;32;20264;-59
2023/05/16 04:26:51;;;;;;;1.23;1.23;;;;;;;11.30;100.00;95005.91;4343221;32;20200;-58
2023/05/16 04:29:16;;;;;;;5.87;3.73;;;;;;;11.23;100.00;95002.91;4344359;32;20209;-59
2023/05/16 04:31:42;;;;;;;2.10;2.00;;;;;;;11.26;100.00;95001.50;4346508;32;20181;-58
2023/05/16 04:34:07;;;;;;;2.10;2.00;;;;;;;11.27;100.00;95006.50;4346290;32;20185;-59
2023/05/16 04:36:34;;;;;;;2.50;2.40;;;;;;;11.38;100.00;95006.28;4306742;32;20201;-59
2023/05/16 04:38:59;;;;;;;1.37;1.37;;;;;;;11.25;100.00;95005.25;4338322;32;20189;-61
2023/05/16 04:41:25;;;;;;;1.97;1.90;;;;;;;11.33;100.00;95000.00;4358986;32;20204;-59
2023/05/16 04:43:50;;;;;;;1.60;1.60;;;;;;;11.34;100.00;95004.22;4341518;32;20373;-59
2023/05/16 04:46:16;;;;;;;2.83;2.27;;;;;;;11.28;100.00;95008.09;4355209;32;20223;-59
2023/05/16 04:48:41;;;;;;;4.33;2.63;;;;;;;11.29;100.00;95008.87;4357478;32;20181;-59
2023/05/16 04:51:06;;;;;;;1.93;1.90;;;;;;;11.38;100.00;94999.09;4334389;32;20207;-59
2023/05/16 04:53:32;;;;;;;2.33;2.23;;;;;;;11.34;100.00;95003.44;4335484;32;20205;-59
2023/05/16 04:55:57;;;;;;;2.43;2.20;;;;;;;11.28;100.00;95002.78;4342750;32;20185;-59
2023/05/16 04:58:23;;;;;;;2.20;2.10;;;;;;;11.35;100.00;94994.37;4339978;32;20200;-59
2023/05/16 05:00:50;;;;;;;2.20;1.83;;;;;;;11.38;100.00;94999.09;4359513;32;22759;-59
2023/05/16 05:03:16;;;;;;;1.70;1.70;;;;;;;11.41;100.00;94995.81;4342073;32;20236;-59
2023/05/16 05:05:42;;;;;;;2.50;2.40;;;;;;;11.48;99.86;94990.84;4344058;32;20209;-59
2023/05/16 05:08:08;;;;;;;2.37;2.27;;;;;;;11.50;99.88;95001.16;4361115;32;20189;-60
2023/05/16 05:10:33;;;;;;;2.00;1.90;;;;;;;11.47;99.70;94997.22;4358442;32;20212;-59
2023/05/16 05:12:59;;;;;;;2.47;2.33;;;;;;;11.44;99.78;95005.81;4351985;32;20268;-59
2023/05/16 05:15:24;;;;;;;1.93;1.83;;;;;;;11.35;100.00;95002.34;4360474;32;20208;-60
2023/05/16 05:17:49;;;;;;;1.90;1.87;;;;;;;11.50;99.75;95007.25;4361568;32;20177;-59
2023/05/16 05:20:15;;;;;;;3.23;3.03;;;;;;;11.51;99.29;95008.81;4345936;32;20203;-59
2023/05/16 05:22:40;;;;;;;2.37;2.17;;;;;;;11.61;99.53;95005.91;4361066;32;20185;-59
2023/05/16 05:25:06;;;;;;;3.57;1.83;;;;;;;11.51;99.51;95008.03;4339248;32;20192;-59
2023/05/16 05:27:31;;;;;;;2.40;2.20;;;;;;;11.47;99.10;95007.84;4355660;32;20240;-60
2023/05/16 05:29:57;;;;;;;3.23;3.03;;;;;;;11.61;99.35;95007.78;4344121;32;20190;-59
2023/05/16 05:32:22;;;;;;;3.23;3.07;;;;;;;11.66;99.05;95007.63;4337783;32;20190;-59
2023/05/16 05:34:48;;;;;;;3.47;3.27;;;;;;;11.40;99.24;95004.88;4342355;32;20193;-59
2023/05/16 05:37:13;;;;;;;3.17;2.83;;;;;;;11.60;98.57;95001.69;4342921;32;20256;-59
2023/05/16 05:39:38;;;;;;;3.47;3.13;;;;;;;11.59;98.78;95007.28;4358199;32;20181;-59
2023/05/16 05:42:04;;;;;;;2.57;2.43;;;;;;;11.51;98.92;94992.87;4362720;32;20193;-60
2023/05/16 05:44:30;;;;;;;2.33;2.23;;;;;;;11.63;98.48;95002.94;4362459;32;20235;-63
2023/05/16 05:46:56;;;;;;;2.30;2.20;;;;;;;11.60;98.22;95006.22;4344575;32;20208;-59
2023/05/16 05:49:23;;;;;;;3.83;2.73;;;;;;;11.63;98.27;95006.38;4357888;32;20326;-59
2023/05/16 05:51:50;;;;;;;3.27;3.07;;;;;;;11.76;97.91;94998.59;4348408;32;20184;-59
2023/05/16 05:54:17;;;;;;;2.93;2.77;;;;;;;11.72;97.72;95003.75;4359600;32;20216;-59
2023/05/16 05:56:42;;;;;;;2.10;2.00;;;;;;;11.70;98.21;94997.94;4355901;32;20211;-59
2023/05/16 05:59:07;;;;;;;3.17;2.97;;;;;;;11.79;97.50;95000.69;4349379;32;20185;-59
2023/05/16 06:01:33;;;;;;;2.40;2.30;;;;;;;11.81;97.74;94995.84;4362599;32;20231;-60
2023/05/16 06:03:58;;;;;;;2.23;1.10;;;;;;;11.93;98.75;95001.31;4358893;32;20213;-59
2023/05/16 06:06:23;;;;;;;7.97;3.53;;;;;;;13.61;100.00;94988.84;4355368;32;20192;-59
2023/05/16 06:08:49;;;;;;;2.50;2.40;;;;;;;13.90;100.00;95001.44;4359191;32;20256;-59
2023/05/16 06:11:14;;;;;;;2.57;2.47;;;;;;;14.37;98.27;95000.19;4360387;32;20306;-59
2023/05/16 06:13:40;;;;;;;2.23;2.13;;;;;;;14.87;93.05;94996.69;4362655;32;20190;-59
2023/05/16 06:16:05;;;;;;;2.30;2.10;;;;;;;15.33;89.86;94992.16;4355518;32;20187;-59
2023/05/16 06:18:30;;;;;;;2.47;2.37;;;;;;;15.69;85.67;94994.91;4345716;32;20176;-59
2023/05/16 06:20:56;;;;;;;4.13;3.63;;;;;;;15.94;88.40;94990.34;4357298;32;20196;-59
2023/05/16 06:23:21;;;;;;;3.10;2.90;;;;;;;16.12;91.61;94997.00;4361776;32;20178;-59
2023/05/16 06:25:46;;;;;;;2.63;2.53;;;;;;;16.44;94.27;94992.59;4346319;32;20185;-59
2023/05/16 06:28:12;;;;;;;1.77;1.67;;;;;;;16.59;91.99;94993.03;4358623;32;20189;-59
2023/05/16 06:30:37;;;;;;;6.00;2.40;;;;;;;16.53;84.51;94989.03;4347443;32;20193;-59
2023/05/16 06:33:02;;;;;;;1.50;1.40;;;;;;;16.32;79.20;94994.53;4356874;32;20225;-59
2023/05/16 06:35:28;;;;;;;1.20;1.20;;;;;;;16.35;78.35;94997.31;4348190;32;20188;-58
2023/05/16 06:37:53;;;;;;;3.30;2.27;;;;;;;16.39;78.56;94995.53;4346494;32;20189;-59
2023/05/16 06:40:18;;;;;;;2.47;2.37;;;;;;;16.27;77.79;94998.22;4357113;32;20204;-59
2023/05/16 06:42:43;;;;;;;2.83;2.70;;;;;;;16.18;77.71;95000.25;4361721;32;20243;-58
2023/05/16 06:45:09;;;;;;;2.30;2.20;;;;;;;16.10;77.32;94996.56;4344001;32;20223;-59
2023/05/16 06:47:35;;;;;;;3.70;2.57;;;;;;;16.13;77.34;95003.16;4343873;32;20181;-59
2023/05/16 06:50:01;;;;;;;2.13;2.07;;;;;;;15.99;76.74;95013.44;4361768;32;20239;-59
2023/05/16 06:52:27;;;;;;;1.67;1.67;;;;;;;16.05;76.86;95004.03;4343090;32;20193;-59
2023/05/16 06:54:52;;;;;;;2.23;2.13;;;;;;;16.10;77.25;95009.94;4345187;32;20177;-58
2023/05/16 06:57:18;;;;;;;3.60;2.73;;;;;;;16.10;76.68;95011.84;4361971;32;20223;-58
2023/05/16 06:59:43;;;;;;;3.27;2.97;;;;;;;16.04;77.08;95010.50;4351764;32;20291;-58
2023/05/16 07:02:08;;;;;;;2.40;2.30;;;;;;;16.07;76.88;95010.63;4343669;32;20197;-58
2023/05/16 07:04:36;;;;;;;1.87;1.70;;;;;;;15.92;76.76;95013.19;4360260;32;20249;-58
2023/05/16 07:07:02;;;;;;;2.13;2.03;;;;;;;16.02;76.94;95012.72;4352910;32;20177;-58
2023/05/16 07:09:28;;;;;;;2.13;2.03;;;;;;;15.91;76.90;95001.72;4350447;32;20227;-58
2023/05/16 07:11:53;;;;;;;2.80;2.70;;;;;;;15.98;76.97;95001.94;4345167;32;20195;-59
2023/05/16 07:14:18;;;;;;;3.07;2.80;;;;;;;16.06;76.39;94995.69;4365115;32;20185;-59
2023/05/16 07:16:43;;;;;;;1.90;1.43;;;;;;;16.07;76.60;95005.25;4352958;32;20185;-59
2023/05/16 07:19:09;;;;;;;1.90;1.80;;;;;;;16.33;85.47;95007.59;4361818;32;20251;-57
2023/05/16 07:21:34;;;;;;;1.97;1.87;;;;;;;16.35;82.94;94999.22;4353892;32;20257;-58
2023/05/16 07:24:00;;;;;;;2.57;2.47;;;;;;;16.53;85.99;94989.03;4341189;32;20185;-60
2023/05/16 07:26:25;;;;;;;2.57;2.47;;;;;;;16.28;84.00;94993.66;4359623;32;20224;-59
2023/05/16 07:28:51;;;;;;;2.03;1.93;;;;;;;16.36;83.18;94996.22;4346907;32;20189;-60
2023/05/16 07:31:16;;;;;;;3.47;3.17;;;;;;;16.26;82.67;94995.88;4342167;32;20236;-57
2023/05/16 07:33:43;;;;;;;2.23;2.13;;;;;;;16.43;82.51;94996.41;4341221;32;20181;-58
2023/05/16 07:36:10;;;;;;;1.90;1.80;;;;;;;16.56;79.54;94999.06;4343234;32;20196;-56
2023/05/16 07:38:35;;;;;;;1.90;1.80;;;;;;;16.85;77.24;95001.44;4340640;32;20193;-58
2023/05/16 07:41:00;;;;;;;2.03;1.93;;;;;;;17.07;76.14;95000.91;4357994;32;20196;-57
2023/05/16 07:43:26;;;;;;;3.27;3.07;;;;;;;17.20;74.93;95014.28;4354218;32;20177;-59
2023/05/16 07:45:52;;;;;;;3.33;3.10;;;;;;;16.08;75.46;95014.06;4360586;32;20222;-56
2023/05/16 07:48:17;;;;;;;3.40;3.10;;;;;;;15.40;77.58;95019.88;4347982;32;20223;-57
2023/05/16 07:50:43;;;;;;;3.20;3.07;;;;;;;14.90;80.66;95028.09;4343505;32;20474;-57
2023/05/16 07:53:08;;;;;;;3.10;2.90;;;;;;;14.38;82.33;95033.75;4341927;32;20231;-56
2023/05/16 07:55:34;;;;;;;2.87;2.67;;;;;;;13.83;86.48;95027.81;4352593;32;20259;-58
2023/05/16 07:58:02;;;;;;;3.37;3.17;;;;;;;13.59;87.56;95029.13;4334280;32;20207;-58
2023/05/16 08:00:28;;;;;;;3.97;3.53;;;;;;;13.55;89.35;95035.41;4360284;32;20185;-58
2023/05/16 08:02:53;;;;;;;5.87;5.47;;;;;;;13.44;88.47;95042.22;4327847;32;20195;-56
2023/05/16 08:05:18;;;;;;;3.50;3.30;;;;;;;13.40;88.16;95039.41;4328656;32;25917;-57
2023/05/16 08:07:44;;;;;;;7.67;3.50;;;;;;;13.02;90.14;95042.72;4357221;32;20207;-56
2023/05/16 08:10:09;;;;;;;5.20;4.50;;;;;;;13.12;90.32;95052.25;4342538;32;20193;-58
2023/05/16 08:12:35;;;;;;;2.97;2.87;;;;;;;13.08;90.24;95041.47;4352853;32;20184;-59
2023/05/16 08:15:01;;;;;;;15.20;3.30;;;;;;;13.07;90.06;95050.56;4347027;32;20184;-58
2023/05/16 08:17:27;;;;;;;2.87;2.73;;;;;;;13.13;90.44;95045.06;4340653;32;20189;-58
2023/05/16 08:19:52;;;;;;;4.33;3.93;;;;;;;13.17;89.72;95043.34;4355978;32;20199;-58
2023/05/16 08:22:17;;;;;;;2.80;2.70;;;;;;;13.09;90.66;95039.59;4354776;32;20185;-58
2023/05/16 08:24:43;;;;;;;3.60;3.40;;;;;;;13.05;90.58;95046.66;4361651;32;20209;-59
2023/05/16 08:27:08;;;;;;;4.73;4.43;;;;;;;12.93;92.10;95051.81;4360986;32;20181;-58
2023/05/16 08:29:33;;;;;;;4.23;3.97;;;;;;;13.02;91.37;95042.72;4347728;32;20216;-58
2023/05/16 08:32:00;;;;;;;6.07;3.43;;;;;;;12.92;92.50;95047.56;4349133;32;20242;-58
2023/05/16 08:34:30;;;;;;;3.37;3.20;;;;;;;13.16;92.15;95053.22;4360754;32;20189;-59
2023/05/16 08:36:55;;;;;;;3.30;3.03;;;;;;;12.97;92.43;95048.22;4363366;32;20189;-58
2023/05/16 08:39:21;;;;;;;3.70;3.50;;;;;;;13.23;91.95;95042.09;4346787;32;20237;-58
2023/05/16 08:41:46;;;;;;;4.30;3.80;;;;;;;13.23;90.97;95042.88;4345910;32;20189;-59
2023/05/16 08:44:19;;;;;;;2.93;2.83;;;;;;;13.07;91.83;95039.13;4354574;32;20253;-56
2023/05/16 08:46:50;;;;;;;3.80;3.50;;;;;;;13.29;91.18;95046.97;4337448;32;20193;-58
2023/05/16 08:49:16;;;;;;;4.07;3.87;;;;;;;13.34;91.85;95048.66;4360126;32;20177;-58
2023/05/16 08:51:42;;;;;;;3.87;3.67;;;;;;;13.30;92.00;95039.75;4335223;32;20199;-58
2023/05/16 08:54:12;;;;;;;3.13;3.03;;;;;;;13.42;92.92;95055.84;4345528;32;20197;-59
2023/05/16 08:56:37;;;;;;;4.80;4.40;;;;;;;13.45;91.51;95041.13;4347309;32;20174;-58
2023/05/16 08:59:03;;;;;;;2.80;2.67;;;;;;;13.50;91.23;95040.94;4346422;32;20203;-58
2023/05/16 09:01:30;;;;;;;3.13;3.03;;;;;;;13.67;91.27;95038.22;4343886;32;20182;-56
2023/05/16 09:03:56;;;;;;;3.77;3.47;;;;;;;13.66;91.20;95042.78;4340355;32;20180;-58
2023/05/16 09:06:21;;;;;;;2.53;2.40;;;;;;;13.61;90.64;95053.59;4337081;32;20302;-58
2023/05/16 09:08:46;;;;;;;2.77;2.67;;;;;;;13.57;88.67;95047.34;4360132;32;20224;-57
2023/05/16 09:11:12;;;;;;;3.73;3.53;;;;;;;13.36;90.30;95049.91;4346800;32;20209;-59
2023/05/16 09:13:40;;;;;;;3.33;3.03;;;;;;;13.23;91.51;95048.22;4341978;32;20280;-60
2023/05/16 09:16:11;;;;;;;3.93;3.63;;;;;;;13.26;91.13;95044.91;4356511;32;20185;-59
2023/05/16 09:18:36;;;;;;;2.27;2.17;;;;;;;13.43;91.37;95030.78;4338228;32;20243;-58
2023/05/16 09:21:04;;;;;;;2.60;2.50;;;;;;;13.53;91.04;95029.63;4339706;32;20249;-59
2023/05/16 09:23:29;;;;;;;3.73;3.53;;;;;;;13.61;92.62;95021.63;4347368;32;20184;-59
2023/05/16 09:25:57;;;;;;;3.87;3.57;;;;;;;13.77;92.37;95019.97;4363665;32;20244;-59
2023/05/16 09:28:22;;;;;;;3.33;3.13;;;;;;;13.74;94.22;95012.62;4359736;32;20203;-57
2023/05/16 09:30:48;;;;;;;3.53;3.30;;;;;;;14.20;93.33;95013.63;4344396;32;20189;-59
2023/05/16 09:33:13;;;;;;;4.40;4.10;;;;;;;14.17;92.62;95019.59;4360235;32;20238;-59
2023/05/16 09:35:39;;;;;;;4.07;3.87;;;;;;;14.22;90.89;95023.97;4341364;32;20197;-59
2023/05/16 09:38:05;;;;;;;3.70;3.50;;;;;;;14.16;89.06;95026.06;4340985;32;20240;-59
2023/05/16 09:40:30;;;;;;;3.00;2.87;;;;;;;14.17;88.81;95024.94;4336126;32;20197;-59
2023/05/16 09:43:03;;;;;;;4.00;3.80;;;;;;;14.13;89.72;95021.38;4334552;32;20231;-58
2023/05/16 09:45:30;;;;;;;3.33;3.13;;;;;;;14.09;90.13;95025.78;4357707;32;20186;-58
2023/05/16 09:48:07;;;;;;;3.63;3.43;;;;;;;14.20;89.98;95034.19;4339670;32;20188;-59
2023/05/16 09:50:36;;;;;;;3.93;3.73;;;;;;;13.85;90.36;95036.25;4361485;32;20191;-60
2023/05/16 09:53:02;;;;;;;4.60;3.40;;;;;;;13.92;90.10;95031.22;4353504;32;20177;-58
2023/05/16 09:55:28;;;;;;;2.83;2.73;;;;;;;13.93;90.89;95030.09;4348670;32;20185;-58
2023/05/16 09:57:55;;;;;;;4.53;4.13;;;;;;;14.04;88.88;95026.75;4347038;32;20189;-59
2023/05/16 10:00:20;;;;;;;3.37;3.20;;;;;;;14.08;89.52;95030.34;4338224;32;20284;-59
2023/05/16 10:02:48;;;;;;;3.07;2.87;;;;;;;14.07;89.23;95030.66;4331875;32;20200;-57
2023/05/16 10:05:16;;;;;;;2.53;2.43;;;;;;;14.03;90.44;95037.75;4338188;32;20211;-58
2023/05/16 10:07:44;;;;;;;3.40;3.20;;;;;;;13.71;91.37;95031.94;4337640;32;20205;-58
2023/05/16 10:10:11;;;;;;;2.67;2.57;;;;;;;13.99;91.08;95034.16;4357241;32;20193;-57
2023/05/16 10:12:37;;;;;;;3.57;3.37;;;;;;;14.15;89.38;95037.03;4351019;32;20256;-60
2023/05/16 10:15:04;;;;;;;4.30;4.00;;;;;;;14.10;88.98;95033.47;4336924;32;20193;-58
2023/05/16 10:17:33;;;;;;;2.80;2.70;;;;;;;13.96;90.00;95038.25;4347878;32;20295;-62
2023/05/16 10:20:06;;;;;;;4.00;3.70;;;;;;;13.97;90.13;95044.34;4340456;32;20197;-58
2023/05/16 10:22:37;;;;;;;9.43;4.60;;;;;;;13.87;92.25;95039.41;4341329;32;20181;-57
2023/05/16 10:25:30;;;;;;;3.17;3.07;;;;;;;13.96;91.50;95037.47;4345149;32;20192;-58
2023/05/16 10:27:57;;;;;;;3.83;3.53;;;;;;;13.96;90.91;95040.91;4339970;32;20189;-58
2023/05/16 10:30:22;;;;;;;4.30;4.00;;;;;;;13.92;92.06;95047.22;4342493;32;20189;-58
2023/05/16 10:32:49;;;;;;;2.60;2.50;;;;;;;13.92;91.10;95034.66;4324532;32;20208;-58
2023/05/16 10:35:14;;;;;;;3.50;3.40;;;;;;;13.66;92.91;95037.44;4345475;32;20296;-59
2023/05/16 10:37:41;;;;;;;4.63;4.33;;;;;;;13.79;92.43;95043.66;4318402;32;20256;-55
2023/05/16 10:40:08;;;;;;;4.33;4.03;;;;;;;13.67;94.21;95046.22;4339560;32;20197;-58
2023/05/16 10:42:34;;;;;;;3.57;3.37;;;;;;;13.61;95.73;95053.59;4331732;32;20224;-57
2023/05/16 10:45:16;;;;;;;3.43;3.23;;;;;;;13.46;98.49;95056.78;4356766;32;20227;-58
2023/05/16 10:48:03;;;;;;;2.93;2.83;;;;;;;13.40;98.35;95058.03;4346097;32;20249;-57
2023/05/16 10:50:42;;;;;;;3.63;3.33;;;;;;;13.29;100.00;95052.28;4336708;32;20185;-57
2023/05/16 10:53:15;;;;;;;3.47;3.27;;;;;;;13.32;100.00;95056.16;4344500;32;20230;-58
2023/05/16 10:56:06;;;;;;;3.27;3.17;;;;;;;13.27;100.00;95051.81;4347744;32;20207;-58
2023/05/16 10:58:37;;;;;;;3.63;3.43;;;;;;;13.44;99.77;95058.19;4356663;32;20243;-55
2023/05/16 11:01:20;;;;;;;4.67;4.47;;;;;;;13.24;100.00;95049.00;4362122;32;20236;-58
2023/05/16 11:03:58;;;;;;;4.27;3.97;;;;;;;13.25;99.73;95058.56;4339467;32;20177;-57
2023/05/16 11:06:24;;;;;;;3.43;3.23;;;;;;;13.29;99.91;95054.16;4337419;32;20207;-58
2023/05/16 11:09:05;;;;;;;5.03;4.63;;;;;;;13.31;100.00;95054.59;4356504;32;20295;-58
2023/05/16 11:11:45;;;;;;;2.13;2.03;;;;;;;13.16;100.00;95055.09;4340146;32;20195;-59
2023/05/16 11:14:37;;;;;;;5.97;5.47;;;;;;;14.66;100.00;95044.75;4340370;32;20202;-60
2023/05/16 11:17:10;;;;;;;4.53;4.13;;;;;;;14.33;100.00;95050.00;4355958;32;20197;-61
2023/05/16 11:19:57;;;;;;;3.10;3.00;;;;;;;15.15;96.73;95049.56;4343556;32;20181;-62
2023/05/16 11:22:33;;;;;;;3.93;3.63;;;;;;;16.05;93.60;95044.19;4347310;32;20197;-61
2023/05/16 11:25:01;;;;;;;2.33;2.23;;;;;;;16.64;89.71;95041.81;4360777;32;20188;-61
2023/05/16 11:27:34;;;;;;;2.03;1.93;;;;;;;17.30;86.31;95043.25;4347754;32;20245;-61
2023/05/16 11:30:09;;;;;;;3.43;3.17;;;;;;;17.68;82.46;95035.47;4361804;32;20253;-61